Alief, TX (77411)

3:48 AM CST on January 31, 2015 (GMT -0600)
Ashford Hollow (West Houston) | Change Station
CLOSE
Current Station
Personal Weather Station
Location: Houston, TX
Elevation: 70 ft
Nearby Weather Stations

Elev 70 ft 29.74 °N, 95.60 °W | Updated 0 second ago

Clear
Clear
48.3 °F
Feels Like 48 °F
N
2.3
Wind Variable Wind from East
Gusts 2.3 mph

Today
High -- | Low -- °F
--% Chance of Precip.
Yesterday
High -- | Low -- °F
Precip. -- in
7:12 AM 5:59 PM
Waxing Gibbous, 88% visible
Pressure 30.23 in
Visibility 10.0 miles
Clouds Clear
Windchill 48 °F
Dew Point 40 °F
Humidity 74%
Rainfall 0.00 in
Snow Depth Not available.
UV 0 out of 12
Pollen 8.30 out of 12
Air Quality Not available.
Flu Activity Not available.
METAR KSGR 310853Z AUTO 09005KT 10SM CLR 10/04 A3022 RMK AO2 SLP237 T01000039 56018

More Conditions Fewer Conditions

Pressure 30.23 in
Visibility 10.0 miles
Clouds Clear
Windchill 48 °F
Dew Point 40 °F
Humidity 74%
Rainfall 0.00 in
Snow Depth Not available.
UV 0 out of 12
Pollen 8.30 out of 12
Air Quality Not available.
Flu Activity Not available.
METAR KSGR 310853Z AUTO 09005KT 10SM CLR 10/04 A3022 RMK AO2 SLP237 T01000039 56018

More Conditions Fewer Conditions

10-Day Weather Forecast

Almanac

Astronomy

Jan. 31, 2015 Rise Set
Actual Time
Civil Twilight
Nautical Twilight
Astronomical Twilight
Moon
Length of Visible Light
Length of Day
Tomorrow will be .
, % of the Moon is Illuminated

Today's Extremes

State Highs State Lows

Community

WunderPhotos

Upload Photos

1,792,021 photos uploaded!

WunderBlogs® & News

Nearby

Air Quality

  Air Quality AQ Index Pollutant
Not available.

Snow Depth

Station Depth Elevation

Earthquake Activity

City Distance Mag. Time & Date
Minimum magnitude displayed is 2.5.

Coastal Water Temperatures

Place Temperature

Nearby Weather Stations